Time;durP1;ratioP1;P1;durP2;ratioP2;P2;SDS_P1;SDS_P2;PMS_P1;PMS_P2;Temp;Humidity;BMP_temperature;BMP_pressure;BME280_temperature;BME280_humidity;BME280_pressure;Samples;Min_cycle;Max_cycle;Signal;HPM_P1;HPM_P2
2023/07/27 00:00:05;;;;;;;;;;;19.10;99.90;;;;;;5096379;28;19989;-64
2023/07/27 00:02:31;;;;;;;;;;;19.10;99.90;;;;;;5096473;28;19981;-64
2023/07/27 00:04:56;;;;;;;;;;;19.20;99.90;;;;;;5095852;28;20005;-64
2023/07/27 00:07:23;;;;;;;;;;;19.20;99.90;;;;;;5094938;28;19985;-65
2023/07/27 00:09:49;;;;;;;;;;;19.20;99.90;;;;;;5096127;28;19992;-64
2023/07/27 00:12:15;;;;;;;;;;;19.20;99.90;;;;;;5096030;28;19985;-64
2023/07/27 00:14:40;;;;;;;;;;;19.20;99.90;;;;;;5096024;28;19989;-64
2023/07/27 00:17:06;;;;;;;;;;;19.10;99.90;;;;;;5094905;28;19981;-64
2023/07/27 00:19:32;;;;;;;;;;;19.10;99.90;;;;;;5095712;28;20023;-65
2023/07/27 00:21:57;;;;;;;;;;;19.00;99.90;;;;;;5095805;28;19981;-64
2023/07/27 00:24:23;;;;;;;;;;;19.00;99.90;;;;;;5095753;28;20105;-64
2023/07/27 00:26:48;;;;;;;;;;;18.90;99.90;;;;;;5095823;28;19992;-65
2023/07/27 00:29:14;;;;;;;;;;;18.80;99.90;;;;;;5095650;28;20444;-65
2023/07/27 00:31:39;;;;;;;;;;;18.70;99.90;;;;;;5095744;28;20455;-64
2023/07/27 00:34:05;;;;;;;;;;;18.70;99.90;;;;;;5095499;28;20342;-65
2023/07/27 00:36:30;;;;;;;;;;;18.80;99.90;;;;;;5095429;28;20092;-66
2023/07/27 00:38:56;;;;;;;;;;;18.70;99.90;;;;;;5095683;28;19981;-65
2023/07/27 00:41:21;;;;;;;;;;;18.70;99.90;;;;;;5095396;28;20004;-65
2023/07/27 00:43:47;;;;;;;;;;;18.80;99.90;;;;;;5095351;28;20012;-65
2023/07/27 00:46:13;;;;;;;;;;;18.80;99.90;;;;;;5095188;28;20021;-65
2023/07/27 00:48:41;;;;;;;;;;;18.80;99.90;;;;;;5095273;28;20043;-64
2023/07/27 00:51:07;;;;;;;;;;;18.80;99.90;;;;;;5095325;28;19981;-65
2023/07/27 00:53:33;;;;;;;;;;;18.70;99.90;;;;;;5095172;28;20016;-65
2023/07/27 00:55:59;;;;;;;;;;;18.70;99.90;;;;;;5095138;28;20387;-65
2023/07/27 00:58:25;;;;;;;;;;;18.80;99.90;;;;;;5095131;28;19997;-64
2023/07/27 01:00:50;;;;;;;;;;;18.80;99.90;;;;;;5095033;28;19981;-65
2023/07/27 01:03:16;;;;;;;;;;;18.70;99.90;;;;;;5094850;28;20005;-64
2023/07/27 01:05:41;;;;;;;;;;;18.60;99.90;;;;;;5095269;28;19985;-65
2023/07/27 01:08:07;;;;;;;;;;;18.60;99.90;;;;;;5094954;28;20466;-65
2023/07/27 01:10:38;;;;;;;;;;;18.60;99.90;;;;;;5095020;28;20036;-65
2023/07/27 01:13:08;;;;;;;;;;;18.50;99.90;;;;;;5094862;28;19981;-64
2023/07/27 01:15:36;;;;;;;;;;;18.40;99.90;;;;;;5094750;28;19988;-65
2023/07/27 01:18:06;;;;;;;;;;;18.40;99.90;;;;;;5094530;28;19985;-65
2023/07/27 01:20:46;;;;;;;;;;;18.50;99.90;;;;;;5094736;28;19981;-65
2023/07/27 01:23:21;;;;;;;;;;;18.50;99.90;;;;;;5094741;28;19981;-64
2023/07/27 01:25:55;;;;;;;;;;;18.60;99.90;;;;;;5094643;28;20035;-64
2023/07/27 01:28:39;;;;;;;;;;;18.60;99.90;;;;;;5094456;28;19987;-65
2023/07/27 01:31:23;;;;;;;;;;;18.50;99.90;;;;;;5094372;28;20443;-65
2023/07/27 01:33:54;;;;;;;;;;;18.50;99.90;;;;;;5094504;28;19984;-64
2023/07/27 01:36:24;;;;;;;;;;;18.50;99.90;;;;;;5094449;28;19988;-64
2023/07/27 01:38:51;;;;;;;;;;;18.50;99.90;;;;;;5094675;28;20079;-64
2023/07/27 01:41:17;;;;;;;;;;;18.50;99.90;;;;;;5094465;28;19981;-64
2023/07/27 01:43:43;;;;;;;;;;;18.50;99.90;;;;;;5094265;28;20005;-64
2023/07/27 01:46:10;;;;;;;;;;;18.40;99.90;;;;;;5093885;28;20059;-65
2023/07/27 01:48:40;;;;;;;;;;;18.40;99.90;;;;;;5094264;28;19981;-65
2023/07/27 01:51:06;;;;;;;;;;;18.40;99.90;;;;;;5094477;28;20084;-65
2023/07/27 01:53:34;;;;;;;;;;;18.50;99.90;;;;;;5093030;28;19985;-64
2023/07/27 01:56:00;;;;;;;;;;;18.40;99.90;;;;;;5094221;28;19985;-65
2023/07/27 01:58:26;;;;;;;;;;;18.40;99.90;;;;;;5094108;28;20004;-65
2023/07/27 02:00:55;;;;;;;;;;;18.40;99.90;;;;;;5093785;28;19981;-64
2023/07/27 02:03:20;;;;;;;;;;;18.40;99.90;;;;;;5094063;28;20005;-64
2023/07/27 02:05:46;;;;;;;;;;;18.40;99.90;;;;;;5094076;28;19987;-64
2023/07/27 02:08:11;;;;;;;;;;;18.30;99.90;;;;;;5093860;28;19981;-64
2023/07/27 02:10:38;;;;;;;;;;;18.30;99.90;;;;;;5093965;28;19989;-65
2023/07/27 02:13:16;;;;;;;;;;;18.20;99.90;;;;;;5093957;28;20083;-64
2023/07/27 02:15:43;;;;;;;;;;;18.10;99.90;;;;;;5093711;28;19991;-64
2023/07/27 02:18:14;;;;;;;;;;;18.10;99.90;;;;;;5094127;28;20036;-64
2023/07/27 02:20:40;;;;;;;;;;;18.10;99.90;;;;;;5093746;28;19985;-65
2023/07/27 02:23:07;;;;;;;;;;;18.10;99.90;;;;;;5094022;28;20079;-64
2023/07/27 02:25:33;;;;;;;;;;;18.00;99.90;;;;;;5093769;28;19992;-65
2023/07/27 02:27:58;;;;;;;;;;;17.90;99.90;;;;;;5093736;28;19985;-65
2023/07/27 02:30:24;;;;;;;;;;;17.90;99.90;;;;;;5093623;28;19981;-65
2023/07/27 02:32:49;;;;;;;;;;;17.90;99.90;;;;;;5093778;28;20027;-65
2023/07/27 02:35:15;;;;;;;;;;;17.90;99.90;;;;;;5093803;28;20351;-65
2023/07/27 02:37:40;;;;;;;;;;;17.90;99.90;;;;;;5093571;28;20447;-64
2023/07/27 02:40:06;;;;;;;;;;;17.80;99.90;;;;;;5095206;28;20007;-65
2023/07/27 02:42:32;;;;;;;;;;;17.80;99.90;;;;;;5098002;28;20037;-65
2023/07/27 02:44:57;;;;;;;;;;;17.70;99.90;;;;;;5097230;28;20448;-64
2023/07/27 02:47:23;;;;;;;;;;;17.80;99.90;;;;;;5097697;28;20457;-64
2023/07/27 02:49:48;;;;;;;;;;;17.70;99.90;;;;;;5097603;28;20383;-64
2023/07/27 02:52:14;;;;;;;;;;;17.70;99.90;;;;;;5097537;28;19981;-64
2023/07/27 02:54:39;;;;;;;;;;;17.60;99.90;;;;;;5097730;28;20080;-64
2023/07/27 02:57:05;;;;;;;;;;;17.50;99.90;;;;;;5097488;28;20026;-65
2023/07/27 02:59:30;;;;;;;;;;;17.50;99.90;;;;;;5097299;28;20031;-65
2023/07/27 03:01:56;;;;;;;;;;;17.50;99.90;;;;;;5097408;28;20355;-64
2023/07/27 03:04:22;;;;;;;;;;;17.40;99.90;;;;;;5097262;28;20410;-65
2023/07/27 03:06:48;;;;;;;;;;;17.40;99.90;;;;;;5097339;28;20497;-64
2023/07/27 03:09:13;;;;;;;;;;;17.40;99.90;;;;;;5097495;28;19993;-65
2023/07/27 03:11:39;;;;;;;;;;;17.40;99.90;;;;;;5097229;28;20321;-64
2023/07/27 03:14:05;;;;;;;;;;;17.40;99.90;;;;;;5096970;28;19985;-65
2023/07/27 03:16:30;;;;;;;;;;;17.40;99.90;;;;;;5097127;28;19989;-66
2023/07/27 03:18:56;;;;;;;;;;;17.40;99.90;;;;;;5097130;28;19981;-64
2023/07/27 03:21:22;;;;;;;;;;;17.30;99.90;;;;;;5097091;28;19981;-65
2023/07/27 03:23:48;;;;;;;;;;;17.30;99.90;;;;;;5096914;28;20005;-64
2023/07/27 03:26:14;;;;;;;;;;;17.20;99.90;;;;;;5097273;28;20110;-65
2023/07/27 03:28:40;;;;;;;;;;;17.00;99.90;;;;;;5096876;28;20419;-65
2023/07/27 03:31:32;;;;;;;;;;;17.10;99.90;;;;;;5096874;28;20431;-64
2023/07/27 03:33:57;;;;;;;;;;;17.10;99.90;;;;;;5094692;28;19985;-65
2023/07/27 03:36:23;;;;;;;;;;;17.20;99.90;;;;;;5096834;28;20444;-64
2023/07/27 03:38:48;;;;;;;;;;;17.20;99.90;;;;;;5096750;28;19988;-64
2023/07/27 03:41:14;;;;;;;;;;;17.20;99.90;;;;;;5096588;28;19985;-64
2023/07/27 03:43:40;;;;;;;;;;;17.20;99.90;;;;;;5096410;28;20012;-64
2023/07/27 03:46:05;;;;;;;;;;;17.20;99.90;;;;;;5096247;28;20060;-65
2023/07/27 03:48:31;;;;;;;;;;;17.20;99.90;;;;;;5096628;28;19981;-64
2023/07/27 03:51:00;;;;;;;;;;;17.20;99.90;;;;;;5096435;28;19982;-65
2023/07/27 03:53:26;;;;;;;;;;;17.20;99.90;;;;;;5096379;28;19988;-64
2023/07/27 03:55:52;;;;;;;;;;;17.20;99.90;;;;;;5096761;28;19985;-64
2023/07/27 03:58:17;;;;;;;;;;;17.20;99.90;;;;;;5096088;28;19997;-65
2023/07/27 04:00:43;;;;;;;;;;;17.20;99.90;;;;;;5096193;28;20424;-65
2023/07/27 04:03:08;;;;;;;;;;;17.20;99.90;;;;;;5096280;28;19985;-65
2023/07/27 04:05:34;;;;;;;;;;;17.20;99.90;;;;;;5096472;28;19985;-64
2023/07/27 04:07:59;;;;;;;;;;;17.20;99.90;;;;;;5096089;28;20016;-64
2023/07/27 04:10:25;;;;;;;;;;;17.20;99.90;;;;;;5096168;28;20351;-64
2023/07/27 04:12:51;;;;;;;;;;;17.20;99.90;;;;;;5095854;28;19987;-64
2023/07/27 04:15:17;;;;;;;;;;;17.30;99.90;;;;;;5096314;28;19989;-64
2023/07/27 04:17:42;;;;;;;;;;;17.40;99.90;;;;;;5095852;28;20114;-65
2023/07/27 04:20:08;;;;;;;;;;;17.40;99.90;;;;;;5095963;28;20391;-65
2023/07/27 04:22:34;;;;;;;;;;;17.40;99.90;;;;;;5095900;28;20003;-65
2023/07/27 04:24:59;;;;;;;;;;;17.40;99.90;;;;;;5095690;28;20005;-65
2023/07/27 04:27:25;;;;;;;;;;;17.40;99.90;;;;;;5095562;28;19982;-64
2023/07/27 04:29:50;;;;;;;;;;;17.40;99.90;;;;;;5095827;28;19981;-64
2023/07/27 04:32:17;;;;;;;;;;;17.30;99.90;;;;;;5095644;28;19987;-65
2023/07/27 04:34:42;;;;;;;;;;;17.40;99.90;;;;;;5095763;28;20007;-65
2023/07/27 04:37:08;;;;;;;;;;;17.30;99.90;;;;;;5095591;28;19985;-65
2023/07/27 04:39:34;;;;;;;;;;;17.20;99.90;;;;;;5095317;28;19988;-65
2023/07/27 04:41:59;;;;;;;;;;;17.20;99.90;;;;;;5095421;28;20371;-65
2023/07/27 04:44:26;;;;;;;;;;;17.20;99.90;;;;;;5095366;28;20012;-65
2023/07/27 04:46:52;;;;;;;;;;;17.10;99.90;;;;;;5095189;28;20025;-64
2023/07/27 04:49:18;;;;;;;;;;;17.20;99.90;;;;;;5095258;28;20088;-64
2023/07/27 04:51:43;;;;;;;;;;;17.20;99.90;;;;;;5095292;28;20046;-65
2023/07/27 04:54:09;;;;;;;;;;;17.10;99.90;;;;;;5095129;28;20466;-65
2023/07/27 04:56:34;;;;;;;;;;;17.10;99.90;;;;;;5095087;28;20459;-65
2023/07/27 04:59:00;;;;;;;;;;;17.10;99.90;;;;;;5095095;28;20398;-64
2023/07/27 05:01:25;;;;;;;;;;;17.20;99.90;;;;;;5095114;28;19989;-64
2023/07/27 05:03:51;;;;;;;;;;;17.20;99.90;;;;;;5094382;28;20005;-65
2023/07/27 05:06:17;;;;;;;;;;;17.30;99.90;;;;;;5095158;28;20024;-64
2023/07/27 05:08:42;;;;;;;;;;;17.30;99.90;;;;;;5094866;28;19985;-65
2023/07/27 05:11:08;;;;;;;;;;;17.30;99.90;;;;;;5094927;28;20013;-65
2023/07/27 05:13:34;;;;;;;;;;;17.20;99.90;;;;;;5095020;28;19985;-65
2023/07/27 05:16:00;;;;;;;;;;;17.20;99.90;;;;;;5094842;28;20415;-64
2023/07/27 05:18:25;;;;;;;;;;;17.20;99.90;;;;;;5094826;28;19981;-65
2023/07/27 05:20:51;;;;;;;;;;;17.20;99.90;;;;;;5094648;28;20027;-64
2023/07/27 05:23:17;;;;;;;;;;;17.20;99.90;;;;;;5094552;28;20030;-65
2023/07/27 05:25:42;;;;;;;;;;;17.30;99.90;;;;;;5094685;28;20131;-64
2023/07/27 05:28:08;;;;;;;;;;;17.40;99.90;;;;;;5094583;28;19988;-64
2023/07/27 05:30:33;;;;;;;;;;;17.60;99.90;;;;;;5094518;28;20472;-64
2023/07/27 05:32:59;;;;;;;;;;;17.60;99.90;;;;;;5094596;28;19992;-65
2023/07/27 05:35:24;;;;;;;;;;;17.60;99.90;;;;;;5094396;28;19981;-64
2023/07/27 05:37:50;;;;;;;;;;;17.30;99.90;;;;;;5094368;28;20020;-65
2023/07/27 05:40:16;;;;;;;;;;;17.30;99.90;;;;;;5094396;28;20359;-65
2023/07/27 05:42:42;;;;;;;;;;;17.40;99.90;;;;;;5094338;28;20075;-65
2023/07/27 05:45:08;;;;;;;;;;;17.50;99.90;;;;;;5094247;28;20024;-63
2023/07/27 05:47:33;;;;;;;;;;;17.60;99.90;;;;;;5094290;28;20351;-63
2023/07/27 05:49:59;;;;;;;;;;;17.50;99.90;;;;;;5094239;28;20066;-64
2023/07/27 05:52:25;;;;;;;;;;;17.70;99.90;;;;;;5094166;28;20055;-64
2023/07/27 05:54:50;;;;;;;;;;;17.60;99.90;;;;;;5094121;28;20075;-65
2023/07/27 05:57:16;;;;;;;;;;;17.60;99.90;;;;;;5094118;28;20003;-65
2023/07/27 05:59:41;;;;;;;;;;;17.80;99.90;;;;;;5093948;28;20080;-65
2023/07/27 06:02:07;;;;;;;;;;;17.90;99.90;;;;;;5094278;28;19981;-64
2023/07/27 06:04:32;;;;;;;;;;;18.00;99.90;;;;;;5093879;28;20542;-64
2023/07/27 06:06:58;;;;;;;;;;;18.10;99.90;;;;;;5093760;28;19981;-65
2023/07/27 06:09:24;;;;;;;;;;;18.20;99.90;;;;;;5094142;28;20006;-64
2023/07/27 06:11:50;;;;;;;;;;;18.00;99.90;;;;;;5093962;28;19982;-64
2023/07/27 06:14:16;;;;;;;;;;;18.10;99.90;;;;;;5093015;28;19981;-64
2023/07/27 06:16:41;;;;;;;;;;;18.10;99.90;;;;;;5093886;28;20766;-64
2023/07/27 06:19:07;;;;;;;;;;;18.20;99.90;;;;;;5093798;28;20352;-64
2023/07/27 06:21:33;;;;;;;;;;;18.30;99.90;;;;;;5093667;28;20030;-63
2023/07/27 06:23:58;;;;;;;;;;;18.40;99.90;;;;;;5093663;28;20454;-64
2023/07/27 06:26:24;;;;;;;;;;;18.50;99.90;;;;;;5093820;28;19988;-64
2023/07/27 06:28:50;;;;;;;;;;;18.50;99.90;;;;;;5093788;28;19988;-64
2023/07/27 06:31:15;;;;;;;;;;;18.60;99.90;;;;;;5093694;28;20035;-63
2023/07/27 06:33:41;;;;;;;;;;;18.70;99.90;;;;;;5093690;28;20461;-64
2023/07/27 06:36:07;;;;;;;;;;;18.80;99.30;;;;;;5093531;28;19981;-65
2023/07/27 06:38:33;;;;;;;;;;;18.90;99.90;;;;;;5093527;28;19981;-64
2023/07/27 06:40:58;;;;;;;;;;;19.00;99.80;;;;;;5093786;28;20084;-65
2023/07/27 06:43:24;;;;;;;;;;;19.10;97.80;;;;;;5093506;28;19981;-64
2023/07/27 06:45:49;;;;;;;;;;;19.10;99.90;;;;;;5093391;28;20017;-65
2023/07/27 06:48:15;;;;;;;;;;;19.10;99.90;;;;;;5093551;28;20038;-64
2023/07/27 06:50:41;;;;;;;;;;;19.30;99.50;;;;;;5093452;28;20473;-65
2023/07/27 06:53:06;;;;;;;;;;;19.40;99.60;;;;;;5093742;28;19985;-63
2023/07/27 06:55:32;;;;;;;;;;;19.50;98.40;;;;;;5093378;28;19989;-65
2023/07/27 06:57:58;;;;;;;;;;;19.50;97.00;;;;;;5093350;28;20008;-65
2023/07/27 07:00:23;;;;;;;;;;;19.60;97.80;;;;;;5093798;28;20036;-65
2023/07/27 07:02:49;;;;;;;;;;;19.70;97.60;;;;;;5093438;28;20042;-65
2023/07/27 07:05:15;;;;;;;;;;;19.80;98.20;;;;;;5093453;28;20009;-63
2023/07/27 07:07:41;;;;;;;;;;;19.80;95.40;;;;;;5093457;28;19995;-65
2023/07/27 07:10:07;;;;;;;;;;;19.80;94.10;;;;;;5093179;28;19986;-64
2023/07/27 07:12:33;;;;;;;;;;;19.70;96.00;;;;;;5093122;28;20032;-64
2023/07/27 07:14:59;;;;;;;;;;;19.80;96.10;;;;;;5093328;28;19985;-64
2023/07/27 07:17:24;;;;;;;;;;;20.00;94.50;;;;;;5093287;28;19981;-65
2023/07/27 07:19:50;;;;;;;;;;;20.10;98.00;;;;;;5093310;28;19988;-64
2023/07/27 07:22:15;;;;;;;;;;;20.50;95.20;;;;;;5093270;28;19981;-65
2023/07/27 07:24:41;;;;;;;;;;;22.70;89.40;;;;;;5093089;28;20400;-64
2023/07/27 07:27:06;;;;;;;;;;;25.90;70.30;;;;;;5095939;28;19982;-65
2023/07/27 07:29:32;;;;;;;;;;;28.40;63.00;;;;;;5096937;28;20004;-64
2023/07/27 07:31:58;;;;;;;;;;;30.30;54.00;;;;;;5096917;28;19981;-65
2023/07/27 07:34:23;;;;;;;;;;;31.60;51.60;;;;;;5096480;28;20470;-65
2023/07/27 07:36:49;;;;;;;;;;;31.90;45.30;;;;;;5096735;28;20087;-64
2023/07/27 07:39:14;;;;;;;;;;;32.60;46.00;;;;;;5096764;28;19988;-65
2023/07/27 07:41:40;;;;;;;;;;;33.40;43.20;;;;;;5096865;28;20024;-65
2023/07/27 07:44:05;;;;;;;;;;;33.30;41.00;;;;;;5096952;28;20451;-62
2023/07/27 07:46:31;;;;;;;;;;;32.50;40.40;;;;;;5096507;28;20023;-63
2023/07/27 07:48:57;;;;;;;;;;;32.00;42.10;;;;;;5096270;28;19981;-62
2023/07/27 07:51:23;;;;;;;;;;;32.30;44.10;;;;;;5096449;28;19988;-63
2023/07/27 07:53:48;;;;;;;;;;;33.30;42.10;;;;;;5096481;28;19985;-62
2023/07/27 07:56:15;;;;;;;;;;;33.70;39.90;;;;;;5096382;28;20386;-63
2023/07/27 07:58:41;;;;;;;;;;;33.60;39.30;;;;;;5096250;28;19997;-62
2023/07/27 08:01:06;;;;;;;;;;;33.40;39.10;;;;;;5096347;28;19988;-63
2023/07/27 08:03:32;;;;;;;;;;;34.10;38.40;;;;;;5096184;28;20009;-62
2023/07/27 08:05:58;;;;;;;;;;;34.00;37.90;;;;;;5096179;28;20087;-64
2023/07/27 08:08:24;;;;;;;;;;;34.70;38.60;;;;;;5096231;28;19985;-63
2023/07/27 08:10:49;;;;;;;;;;;35.30;35.70;;;;;;5096357;28;20087;-62
2023/07/27 08:13:15;;;;;;;;;;;35.10;36.80;;;;;;5095996;28;19981;-63
2023/07/27 08:15:49;;;;;;;;;;;34.90;34.20;;;;;;5096146;28;19981;-65
2023/07/27 08:18:14;;;;;;;;;;;34.70;34.50;;;;;;5095639;28;19992;-65
2023/07/27 08:20:40;;;;;;;;;;;34.50;37.60;;;;;;5095864;28;19981;-65
2023/07/27 08:23:05;;;;;;;;;;;34.90;35.50;;;;;;5095993;28;19982;-64
2023/07/27 08:25:36;;;;;;;;;;;34.90;34.80;;;;;;5095857;28;20004;-64
2023/07/27 08:28:01;;;;;;;;;;;35.20;34.90;;;;;;5096003;28;19984;-64
2023/07/27 08:30:27;;;;;;;;;;;34.30;37.10;;;;;;5096049;28;20071;-64
2023/07/27 08:32:52;;;;;;;;;;;34.30;34.80;;;;;;5095543;28;19988;-65
2023/07/27 08:35:18;;;;;;;;;;;34.90;34.80;;;;;;5095610;28;20031;-66
2023/07/27 08:37:44;;;;;;;;;;;35.10;32.60;;;;;;5095035;28;19985;-62
2023/07/27 08:40:10;;;;;;;;;;;32.80;34.20;;;;;;5095563;28;20386;-62
2023/07/27 08:42:36;;;;;;;;;;;32.70;35.30;;;;;;5095745;28;19985;-64
2023/07/27 08:45:01;;;;;;;;;;;33.50;37.00;;;;;;5095058;28;20048;-61
2023/07/27 08:47:28;;;;;;;;;;;34.30;36.50;;;;;;5095430;28;20039;-62
2023/07/27 08:49:53;;;;;;;;;;;34.60;35.70;;;;;;5095368;28;20016;-63
2023/07/27 08:52:19;;;;;;;;;;;34.50;35.90;;;;;;5095237;28;20024;-63
2023/07/27 08:54:46;;;;;;;;;;;34.50;34.10;;;;;;5095419;28;19981;-63
2023/07/27 08:57:12;;;;;;;;;;;34.20;34.40;;;;;;5095248;28;20075;-62
2023/07/27 08:59:37;;;;;;;;;;;33.70;33.90;;;;;;5095123;28;20164;-64
2023/07/27 09:02:03;;;;;;;;;;;33.50;34.00;;;;;;5095284;28;19985;-63
2023/07/27 09:04:29;;;;;;;;;;;32.60;39.30;;;;;;5095078;28;20102;-62
2023/07/27 09:06:54;;;;;;;;;;;33.10;36.10;;;;;;5094937;28;20028;-63
2023/07/27 09:09:25;;;;;;;;;;;33.50;36.30;;;;;;5094984;28;19989;-62
2023/07/27 09:11:54;;;;;;;;;;;32.60;37.00;;;;;;5094939;28;19981;-63
2023/07/27 09:14:20;;;;;;;;;;;32.40;35.60;;;;;;5094856;28;19981;-63
2023/07/27 09:16:46;;;;;;;;;;;32.30;36.30;;;;;;5094581;28;20039;-64
2023/07/27 09:19:12;;;;;;;;;;;32.60;36.80;;;;;;5095100;28;19984;-65
2023/07/27 09:21:42;;;;;;;;;;;32.50;37.20;;;;;;5094700;28;20034;-64
2023/07/27 09:24:11;;;;;;;;;;;32.70;35.90;;;;;;5094975;28;20434;-65
2023/07/27 09:27:03;;;;;;;;;;;33.40;36.90;;;;;;5094929;28;20034;-63
2023/07/27 09:29:28;;;;;;;;;;;33.40;35.70;;;;;;5092621;28;19985;-63
2023/07/27 09:31:57;;;;;;;;;;;33.20;35.80;;;;;;5094354;28;20354;-65
2023/07/27 09:34:23;;;;;;;;;;;33.20;34.50;;;;;;5094707;28;20393;-65
2023/07/27 09:36:49;;;;;;;;;;;32.40;33.90;;;;;;5094425;28;19989;-63
2023/07/27 09:39:15;;;;;;;;;;;32.70;35.80;;;;;;5094426;28;19988;-63
2023/07/27 09:41:44;;;;;;;;;;;31.70;36.40;;;;;;5094249;28;20424;-62
2023/07/27 09:44:14;;;;;;;;;;;30.30;37.50;;;;;;5094530;28;20111;-63
2023/07/27 09:46:40;;;;;;;;;;;29.80;38.00;;;;;;5093979;28;20021;-63
2023/07/27 09:49:06;;;;;;;;;;;30.60;38.70;;;;;;5094114;28;19981;-64
2023/07/27 09:51:33;;;;;;;;;;;31.40;37.50;;;;;;5094243;28;19988;-65
2023/07/27 09:53:59;;;;;;;;;;;31.60;35.30;;;;;;5094302;28;20108;-63
2023/07/27 09:56:25;;;;;;;;;;;31.50;36.40;;;;;;5094052;28;19985;-63
2023/07/27 09:58:51;;;;;;;;;;;31.60;38.00;;;;;;5094163;28;20050;-63
2023/07/27 10:01:17;;;;;;;;;;;32.10;38.10;;;;;;5093917;28;19985;-64
2023/07/27 10:03:45;;;;;;;;;;;32.60;37.30;;;;;;5093873;28;20031;-63
2023/07/27 10:06:10;;;;;;;;;;;32.40;38.70;;;;;;5094138;28;20427;-63
2023/07/27 10:08:36;;;;;;;;;;;32.70;39.90;;;;;;5094286;28;19996;-63
2023/07/27 10:11:02;;;;;;;;;;;31.60;35.80;;;;;;5093928;28;19988;-63
2023/07/27 10:13:27;;;;;;;;;;;30.30;35.40;;;;;;5093986;28;20442;-62
2023/07/27 10:15:54;;;;;;;;;;;30.20;38.20;;;;;;5093863;28;20034;-62
2023/07/27 10:18:24;;;;;;;;;;;30.50;37.40;;;;;;5093919;28;19985;-63
2023/07/27 10:20:50;;;;;;;;;;;31.20;39.90;;;;;;5094005;28;20012;-62
2023/07/27 10:23:22;;;;;;;;;;;31.50;37.80;;;;;;5093684;28;19985;-62
2023/07/27 10:25:54;;;;;;;;;;;31.70;38.00;;;;;;5093774;28;20026;-64
2023/07/27 10:28:35;;;;;;;;;;;31.90;34.30;;;;;;5093789;28;19989;-63
2023/07/27 10:31:16;;;;;;;;;;;31.90;36.50;;;;;;5093759;28;19988;-62
2023/07/27 10:33:46;;;;;;;;;;;31.70;35.00;;;;;;5093640;28;20035;-62
2023/07/27 10:36:12;;;;;;;;;;;31.70;35.50;;;;;;5093775;28;20015;-62
2023/07/27 10:38:38;;;;;;;;;;;32.30;36.60;;;;;;5093577;28;20435;-63
2023/07/27 10:41:15;;;;;;;;;;;32.30;37.60;;;;;;5093756;28;20006;-64
2023/07/27 10:44:00;;;;;;;;;;;32.10;37.90;;;;;;5093619;28;20009;-63
2023/07/27 10:46:25;;;;;;;;;;;32.00;35.40;;;;;;5093495;28;20387;-63
2023/07/27 10:48:58;;;;;;;;;;;31.80;34.40;;;;;;5093647;28;19989;-62
2023/07/27 10:51:27;;;;;;;;;;;31.20;35.30;;;;;;5093597;28;20322;-62
2023/07/27 10:53:53;;;;;;;;;;;30.80;36.80;;;;;;5093635;28;20367;-62
2023/07/27 10:56:19;;;;;;;;;;;30.70;38.30;;;;;;5093524;28;19985;-62
2023/07/27 10:58:45;;;;;;;;;;;30.80;37.70;;;;;;5093231;28;20000;-63
2023/07/27 11:01:11;;;;;;;;;;;30.20;36.10;;;;;;5095299;28;19985;-62
2023/07/27 11:03:37;;;;;;;;;;;30.60;40.80;;;;;;5097375;28;20119;-63
2023/07/27 11:06:03;;;;;;;;;;;31.10;40.10;;;;;;5097383;28;20378;-63
2023/07/27 11:08:28;;;;;;;;;;;31.50;37.00;;;;;;5097475;28;19995;-63
2023/07/27 11:10:54;;;;;;;;;;;31.90;35.70;;;;;;5097641;28;20389;-65
2023/07/27 11:13:22;;;;;;;;;;;32.30;35.60;;;;;;5097009;28;19980;-63
2023/07/27 11:15:48;;;;;;;;;;;32.60;37.90;;;;;;5097370;28;20359;-63
2023/07/27 11:18:20;;;;;;;;;;;32.30;33.90;;;;;;5097424;28;20034;-63
2023/07/27 11:20:45;;;;;;;;;;;32.40;37.20;;;;;;5097047;28;19981;-62
2023/07/27 11:23:11;;;;;;;;;;;32.60;37.50;;;;;;5097176;28;20347;-62
2023/07/27 11:25:37;;;;;;;;;;;32.80;37.20;;;;;;5097015;28;20005;-64
2023/07/27 11:28:04;;;;;;;;;;;33.10;37.30;;;;;;5096717;28;20450;-63
2023/07/27 11:30:29;;;;;;;;;;;33.00;33.70;;;;;;5097047;28;20028;-62
2023/07/27 11:32:58;;;;;;;;;;;32.80;38.00;;;;;;5096943;28;20017;-61
2023/07/27 11:35:24;;;;;;;;;;;33.30;35.30;;;;;;5096702;28;20444;-63
2023/07/27 11:37:49;;;;;;;;;;;33.70;33.70;;;;;;5097087;28;19989;-63
2023/07/27 11:40:18;;;;;;;;;;;33.30;37.50;;;;;;5096777;28;20461;-63
2023/07/27 11:42:44;;;;;;;;;;;32.90;34.60;;;;;;5096604;28;20072;-63
2023/07/27 11:45:10;;;;;;;;;;;32.60;36.50;;;;;;5096401;28;20589;-62
2023/07/27 11:47:37;;;;;;;;;;;32.50;36.00;;;;;;5096827;28;20042;-64
2023/07/27 11:50:03;;;;;;;;;;;32.70;35.50;;;;;;5096436;28;19982;-62
2023/07/27 11:52:29;;;;;;;;;;;32.70;35.60;;;;;;5096471;28;19985;-63
2023/07/27 11:54:57;;;;;;;;;;;32.90;34.00;;;;;;5096253;28;20432;-62
2023/07/27 11:57:27;;;;;;;;;;;32.90;34.60;;;;;;5096215;28;20435;-62
2023/07/27 12:00:19;;;;;;;;;;;32.90;34.70;;;;;;5096347;28;19985;-63
2023/07/27 12:02:46;;;;;;;;;;;32.90;32.30;;;;;;5094007;28;20084;-62
2023/07/27 12:05:13;;;;;;;;;;;32.80;34.10;;;;;;5096215;28;20413;-63
2023/07/27 12:07:39;;;;;;;;;;;32.90;34.50;;;;;;5096290;28;20050;-63
2023/07/27 12:10:04;;;;;;;;;;;32.80;32.10;;;;;;5095937;28;19981;-63
2023/07/27 12:12:32;;;;;;;;;;;32.60;32.40;;;;;;5094944;28;20045;-62
2023/07/27 12:14:58;;;;;;;;;;;32.50;32.50;;;;;;5096155;28;19981;-63
2023/07/27 12:17:24;;;;;;;;;;;32.70;34.20;;;;;;5095911;28;20439;-62
2023/07/27 12:19:49;;;;;;;;;;;33.10;36.40;;;;;;5096081;28;19985;-64
2023/07/27 12:22:15;;;;;;;;;;;33.40;33.60;;;;;;5095991;28;19988;-63
2023/07/27 12:24:44;;;;;;;;;;;33.00;34.60;;;;;;5095847;28;20069;-63
2023/07/27 12:27:09;;;;;;;;;;;33.10;33.70;;;;;;5095892;28;19989;-61
2023/07/27 12:29:35;;;;;;;;;;;33.10;32.30;;;;;;5096089;28;20122;-63
2023/07/27 12:32:00;;;;;;;;;;;32.90;33.50;;;;;;5095753;28;20004;-63
2023/07/27 12:34:26;;;;;;;;;;;32.90;32.20;;;;;;5095622;28;20076;-63
2023/07/27 12:36:52;;;;;;;;;;;32.90;34.80;;;;;;5095794;28;20030;-61
2023/07/27 12:39:18;;;;;;;;;;;33.00;35.10;;;;;;5095380;28;19981;-61
2023/07/27 12:41:44;;;;;;;;;;;32.70;33.20;;;;;;5095780;28;19989;-62
2023/07/27 12:44:09;;;;;;;;;;;32.10;33.70;;;;;;5095419;28;20366;-63
2023/07/27 12:46:35;;;;;;;;;;;32.00;37.10;;;;;;5095348;28;20478;-62
2023/07/27 12:49:00;;;;;;;;;;;31.90;35.90;;;;;;5095656;28;20328;-64
2023/07/27 12:51:26;;;;;;;;;;;31.60;33.60;;;;;;5095348;28;20332;-61
2023/07/27 12:53:52;;;;;;;;;;;31.10;34.50;;;;;;5094300;28;19992;-62
2023/07/27 12:56:18;;;;;;;;;;;30.50;35.30;;;;;;5095210;28;19999;-62
2023/07/27 12:58:43;;;;;;;;;;;30.20;35.50;;;;;;5095333;28;20005;-63
2023/07/27 13:01:09;;;;;;;;;;;30.50;35.50;;;;;;5095299;28;20125;-62
2023/07/27 13:03:36;;;;;;;;;;;30.80;35.60;;;;;;5095006;28;19981;-63
2023/07/27 13:06:02;;;;;;;;;;;30.80;36.70;;;;;;5094940;28;19992;-62
2023/07/27 13:08:28;;;;;;;;;;;30.90;35.10;;;;;;5095106;28;19985;-63
2023/07/27 13:10:54;;;;;;;;;;;31.00;32.50;;;;;;5095038;28;19988;-63
2023/07/27 13:13:19;;;;;;;;;;;31.00;33.60;;;;;;5094867;28;19985;-63
2023/07/27 13:15:45;;;;;;;;;;;31.20;35.60;;;;;;5094891;28;20051;-62
2023/07/27 13:18:11;;;;;;;;;;;30.70;35.10;;;;;;5095115;28;19985;-61
2023/07/27 13:20:38;;;;;;;;;;;30.90;37.70;;;;;;5094687;28;20393;-62
2023/07/27 13:23:03;;;;;;;;;;;31.30;35.30;;;;;;5094540;28;20087;-62
2023/07/27 13:25:29;;;;;;;;;;;31.30;35.00;;;;;;5094562;28;20540;-63
2023/07/27 13:27:55;;;;;;;;;;;31.60;33.20;;;;;;5094633;28;20436;-63
2023/07/27 13:30:20;;;;;;;;;;;31.80;35.00;;;;;;5094771;28;19982;-61
2023/07/27 13:32:46;;;;;;;;;;;31.80;36.30;;;;;;5094577;28;19985;-63
2023/07/27 13:35:12;;;;;;;;;;;31.80;34.30;;;;;;5094552;28;19981;-62
2023/07/27 13:37:37;;;;;;;;;;;31.80;34.30;;;;;;5094233;28;20114;-62
2023/07/27 13:40:03;;;;;;;;;;;32.10;32.10;;;;;;5094570;28;20436;-62
2023/07/27 13:42:28;;;;;;;;;;;32.30;34.40;;;;;;5094389;28;20451;-62
2023/07/27 13:44:54;;;;;;;;;;;32.30;32.10;;;;;;5094304;28;20028;-63
2023/07/27 13:47:19;;;;;;;;;;;32.50;31.80;;;;;;5094629;28;20463;-61
2023/07/27 13:49:45;;;;;;;;;;;32.50;31.30;;;;;;5094331;28;20094;-61
2023/07/27 13:52:11;;;;;;;;;;;32.40;34.10;;;;;;5093983;28;19987;-62
2023/07/27 13:54:36;;;;;;;;;;;32.20;34.00;;;;;;5094221;28;19985;-61
2023/07/27 13:57:02;;;;;;;;;;;32.00;31.80;;;;;;5094137;28;19981;-63
2023/07/27 13:59:27;;;;;;;;;;;31.90;32.40;;;;;;5094045;28;19981;-62
2023/07/27 14:01:53;;;;;;;;;;;32.00;30.80;;;;;;5094207;28;20076;-62
2023/07/27 14:04:18;;;;;;;;;;;31.80;35.00;;;;;;5094052;28;20016;-62
2023/07/27 14:06:44;;;;;;;;;;;31.90;32.60;;;;;;5094168;28;19986;-63
2023/07/27 14:09:10;;;;;;;;;;;31.70;34.30;;;;;;5093936;28;20031;-62
2023/07/27 14:11:35;;;;;;;;;;;31.80;34.50;;;;;;5094103;28;20569;-63